Time;durP1;ratioP1;P1;durP2;ratioP2;P2;SDS_P1;SDS_P2;PMS_P1;PMS_P2;Temp;Humidity;BMP_temperature;BMP_pressure;BME280_temperature;BME280_humidity;BME280_pressure;Samples;Min_cycle;Max_cycle;Signal;HPM_P1;HPM_P2
2021/11/05 00:01:37;;;;;;;13.43;7.03;;;;;;;;;;4974545;28;20475;-74
2021/11/05 00:04:25;;;;;;;23.63;7.43;;;8.70;1.00;;;;;;4981577;28;20864;-75
2021/11/05 00:06:51;;;;;;;12.37;7.17;;;;;;;;;;4980115;28;20462;-75
2021/11/05 00:09:43;;;;;;;8.20;5.80;;;;;;;;;;4988231;28;20460;-75
2021/11/05 00:12:13;;;;;;;13.80;7.17;;;;;;;;;;4982921;28;20418;-75
2021/11/05 00:14:44;;;;;;;14.90;7.47;;;;;;;;;;4973539;28;20472;-75
2021/11/05 00:17:31;;;;;;;15.20;7.37;;;8.60;1.00;;;;;;4977728;28;20412;-75
2021/11/05 00:20:14;;;;;;;15.73;7.80;;;8.60;1.00;;;;;;4982915;28;20432;-75
2021/11/05 00:22:40;;;;;;;20.77;8.50;;;;;;;;;;4973697;28;20437;-75
2021/11/05 00:28:32;;;;;;;15.50;7.63;;;;;;;;;;4981893;28;20954;-75
2021/11/05 00:31:01;;;;;;;14.17;6.93;;;;;;;;;;4973901;28;20525;-74
2021/11/05 00:33:31;;;;;;;27.57;7.13;;;;;;;;;;4980395;28;20448;-74
2021/11/05 00:36:02;;;;;;;15.23;7.53;;;;;;;;;;4975522;28;20960;-75
2021/11/05 00:38:28;;;;;;;17.47;7.60;;;;;;;;;;4973553;28;20428;-74
2021/11/05 00:40:54;;;;;;;22.70;7.70;;;;;;;;;;4974381;28;20445;-74
2021/11/05 00:43:23;;;;;;;19.43;8.40;;;;;;;;;;4980000;28;20924;-74
2021/11/05 00:45:56;;;;;;;12.90;6.73;;;;;;;;;;4975197;28;20983;-74
2021/11/05 00:48:38;;;;;;;11.40;6.30;;;;;;;;;;4973148;28;20422;-74
2021/11/05 00:51:07;;;;;;;14.20;7.30;;;;;;;;;;4981018;28;20917;-74
2021/11/05 00:53:34;;;;;;;11.17;6.23;;;;;;;;;;4973016;28;20843;-74
2021/11/05 00:56:02;;;;;;;18.93;8.03;;;;;;;;;;5064174;28;20539;-74
2021/11/05 00:58:32;;;;;;;17.30;6.80;;;;;;;;;;5007254;28;20429;-74
2021/11/05 01:00:58;;;;;;;9.00;6.17;;;;;;;;;;4977146;28;20433;-74
2021/11/05 01:03:26;;;;;;;13.77;5.93;;;;;;;;;;4976292;28;20856;-75
2021/11/05 01:05:55;;;;;;;19.47;6.93;;;;;;;;;;4973192;28;20425;-74
2021/11/05 01:08:22;;;;;;;14.43;6.93;;;;;;;;;;4985867;28;20880;-74
2021/11/05 01:10:48;;;;;;;14.33;6.17;;;;;;;;;;4986754;28;20448;-74
2021/11/05 01:13:37;;;;;;;26.50;6.17;;;7.60;1.00;;;;;;4988734;28;20942;-74
2021/11/05 01:16:25;;;;;;;15.70;6.70;;;7.60;1.00;;;;;;4973399;28;20799;-74
2021/11/05 01:18:51;;;;;;;13.63;6.73;;;;;;;;;;4972550;28;20428;-74
2021/11/05 01:21:17;;;;;;;10.57;5.87;;;;;;;;;;4974642;28;20790;-74
2021/11/05 01:23:44;;;;;;;17.10;7.10;;;;;;;;;;4973447;28;20467;-74
2021/11/05 01:26:10;;;;;;;10.60;6.00;;;;;;;;;;4973329;28;20516;-75
2021/11/05 01:28:36;;;;;;;10.40;6.30;;;;;;;;;;4981346;28;20417;-74
2021/11/05 01:31:02;;;;;;;11.30;6.70;;;;;;;;;;4989018;28;20469;-74
2021/11/05 01:33:29;;;;;;;18.83;7.47;;;;;;;;;;4981562;28;20422;-74
2021/11/05 01:35:56;;;;;;;21.50;6.13;;;;;;;;;;4985403;28;20473;-74
2021/11/05 01:38:38;;;;;;;10.00;6.00;;;;;;;;;;4972392;28;20414;-74
2021/11/05 01:41:04;;;;;;;8.60;5.47;;;;;;;;;;4986394;28;20776;-74
2021/11/05 01:43:32;;;;;;;13.57;6.40;;;;;;;;;;4979128;28;20915;-75
2021/11/05 01:46:08;;;;;;;18.63;6.80;;;;;;;;;;4972174;28;20424;-74
2021/11/05 01:48:36;;;;;;;8.37;5.40;;;7.80;1.00;;;;;;4977102;28;20441;-75
2021/11/05 01:51:43;;;;;;;10.60;5.87;;;7.80;1.00;;;;;;4974298;28;20935;-75
2021/11/05 01:54:20;;;;;;;11.07;5.60;;;;;;;;;;4974610;28;20448;-75
2021/11/05 01:56:51;;;;;;;11.83;6.20;;;7.80;1.00;;;;;;4972434;28;20832;-74
2021/11/05 01:59:43;;;;;;;8.10;4.73;;;;;;;;;;4979417;28;20489;-74
2021/11/05 02:02:25;;;;;;;10.37;5.30;;;;;;;;;;4972669;28;20424;-74
2021/11/05 02:04:56;;;;;;;13.10;5.40;;;;;;;;;;4972098;28;20433;-74
2021/11/05 02:07:31;;;;;;;10.77;5.77;;;7.90;1.00;;;;;;4973715;28;20452;-74
2021/11/05 02:09:57;;;;;;;16.23;6.10;;;;;;;;;;4973145;28;20448;-74
2021/11/05 02:12:25;;;;;;;10.47;5.43;;;8.00;1.00;;;;;;4981225;28;20800;-75
2021/11/05 02:14:52;;;;;;;13.40;5.77;;;7.90;1.00;;;;;;4976074;28;20467;-75
2021/11/05 02:17:19;;;;;;;11.23;5.10;;;8.00;1.00;;;;;;4989480;28;20424;-75
2021/11/05 02:19:50;;;;;;;22.07;5.63;;;;;;;;;;4991044;28;20480;-75
2021/11/05 02:22:16;;;;;;;11.27;6.27;;;;;;;;;;4972324;28;20420;-75
2021/11/05 02:24:42;;;;;;;8.17;4.90;;;8.10;1.00;;;;;;4989131;28;20420;-75
2021/11/05 02:27:08;;;;;;;8.43;4.77;;;;;;;;;;4991818;28;20425;-74
2021/11/05 02:29:37;;;;;;;9.43;4.87;;;8.00;1.00;;;;;;4975980;28;20942;-75
2021/11/05 02:32:05;;;;;;;13.40;5.53;;;8.00;1.00;;;;;;4978468;28;20470;-75
2021/11/05 02:34:32;;;;;;;6.17;4.30;;;8.00;1.00;;;;;;4990467;28;20870;-76
2021/11/05 02:37:14;;;;;;;9.97;5.50;;;;;;;;;;4986533;28;20437;-77
2021/11/05 02:40:01;;;;;;;7.70;4.70;;;8.10;1.00;;;;;;4978552;28;20493;-77
2021/11/05 02:42:27;;;;;;;10.03;5.03;;;;;;;;;;4978795;28;20428;-77
2021/11/05 02:45:03;;;;;;;8.60;5.10;;;;;;;;;;4994330;28;20520;-77
2021/11/05 02:47:29;;;;;;;12.23;5.60;;;;;;;;;;4985824;28;20452;-77
2021/11/05 02:50:13;;;;;;;9.43;5.20;;;;;;;;;;4982532;28;20483;-78
2021/11/05 02:53:13;;;;;;;10.60;5.50;;;;;;;;;;4986565;28;20444;-77
2021/11/05 02:56:01;;;;;;;9.53;5.10;;;8.20;1.00;;;;;;5019776;28;20551;-77
2021/11/05 02:58:27;;;;;;;10.17;5.47;;;;;;;;;;4981353;28;20426;-77
2021/11/05 03:01:02;;;;;;;11.43;5.13;;;;;;;;;;4975083;28;20405;-77
2021/11/05 03:03:32;;;;;;;8.93;5.30;;;;;;;;;;4988377;28;20419;-77
2021/11/05 03:06:08;;;;;;;9.10;4.70;;;;;;;;;;4986776;28;20786;-77
2021/11/05 03:08:38;;;;;;;9.00;5.40;;;;;;;;;;4987216;28;20566;-77
2021/11/05 03:11:12;;;;;;;12.83;4.70;;;;;;;;;;4975080;28;20871;-77
2021/11/05 03:13:44;;;;;;;8.33;4.37;;;8.20;1.00;;;;;;4981401;28;20409;-77
2021/11/05 03:16:11;;;;;;;11.87;4.87;;;8.20;1.00;;;;;;4979795;28;20469;-77
2021/11/05 03:18:56;;;;;;;16.40;5.50;;;;;;;;;;4984351;28;20444;-77
2021/11/05 03:21:38;;;;;;;14.17;4.90;;;;;;;;;;4973122;28;20461;-77
2021/11/05 03:24:08;;;;;;;8.20;4.57;;;;;;;;;;4988200;28;20836;-77
2021/11/05 03:26:38;;;;;;;11.77;5.30;;;;;;;;;;4979286;28;20884;-77
2021/11/05 03:29:37;;;;;;;13.60;5.40;;;8.20;1.00;;;;;;4975295;28;20406;-77
2021/11/05 03:32:03;;;;;;;13.10;6.10;;;;;;;;;;4981628;28;20437;-77
2021/11/05 03:34:44;;;;;;;11.90;4.73;;;;;;;;;;4976958;28;20470;-77
2021/11/05 03:37:26;;;;;;;9.70;4.73;;;;;;;;;;4981003;28;20421;-77
2021/11/05 03:40:05;;;;;;;7.07;4.30;;;8.20;1.00;;;;;;4974134;28;20429;-77
2021/11/05 03:42:32;;;;;;;11.50;5.20;;;;;;;;;;4980292;28;20753;-77
2021/11/05 03:45:02;;;;;;;12.20;6.00;;;;;;;;;;4982193;28;20771;-77
2021/11/05 03:47:28;;;;;;;15.50;5.93;;;8.20;1.00;;;;;;4974360;28;20453;-77
2021/11/05 03:50:03;;;;;;;13.93;5.23;;;;;;;;;;4974112;28;20429;-78
2021/11/05 03:52:45;;;;;;;13.83;4.80;;;;;;;;;;4986792;28;20213;-78
2021/11/05 03:55:37;;;;;;;17.33;5.43;;;8.10;1.00;;;;;;4986073;28;20563;-78
2021/11/05 03:58:03;;;;;;;13.30;6.57;;;;;;;;;;4978212;28;20960;-77
2021/11/05 04:00:38;;;;;;;10.23;5.63;;;;;;;;;;4977014;28;20425;-78
2021/11/05 04:03:08;;;;;;;10.80;5.47;;;;;;;;;;4976082;28;20834;-78
2021/11/05 04:05:38;;;;;;;13.47;5.90;;;;;;;;;;4985651;28;20943;-78
2021/11/05 04:08:04;;;;;;;11.17;5.47;;;;;;;;;;4982415;28;20432;-78
2021/11/05 04:10:38;;;;;;;22.13;6.37;;;;;;;;;;4973894;28;20474;-77
2021/11/05 04:13:08;;;;;;;11.50;6.07;;;;;;;;;;4972232;28;20783;-77
2021/11/05 04:15:38;;;;;;;13.83;5.50;;;;;;;;;;4973357;28;20468;-77
2021/11/05 04:18:08;;;;;;;11.83;5.83;;;;;;;;;;4978909;28;20513;-77
2021/11/05 04:20:50;;;;;;;11.77;5.30;;;;;;;;;;4973683;28;20857;-77
2021/11/05 04:23:20;;;;;;;9.40;5.80;;;;;;;;;;4989593;28;20417;-77
2021/11/05 04:25:50;;;;;;;11.50;5.60;;;;;;;;;;4980320;28;20453;-77
2021/11/05 04:28:20;;;;;;;9.30;5.67;;;;;;;;;;4982063;28;20429;-77
2021/11/05 04:30:46;;;;;;;21.77;6.50;;;7.90;1.00;;;;;;4974930;28;20445;-78
2021/11/05 04:33:20;;;;;;;9.23;5.37;;;;;;;;;;4977276;28;20442;-78
2021/11/05 04:35:50;;;;;;;11.63;6.27;;;;;;;;;;4973538;28;20492;-78
2021/11/05 04:38:20;;;;;;;12.10;6.57;;;;;;;;;;4972329;28;20479;-78
2021/11/05 04:40:46;;;;;;;11.37;6.37;;;;;;;;;;4973275;28;20479;-76
2021/11/05 04:43:14;;;;;;;14.80;6.73;;;;;;;;;;4973299;28;20765;-76
2021/11/05 04:45:40;;;;;;;9.50;4.90;;;;;;;;;;4973729;28;20453;-77
2021/11/05 04:48:08;;;;;;;7.50;5.20;;;;;;;;;;4981323;28;20806;-76
2021/11/05 04:50:38;;;;;;;11.37;6.00;;;;;;;;;;4978937;28;20811;-76
2021/11/05 04:53:08;;;;;;;14.60;7.23;;;;;;;;;;4981311;28;20867;-76
2021/11/05 04:55:55;;;;;;;13.83;5.90;;;7.90;1.00;;;;;;4973038;28;20458;-77
2021/11/05 04:58:32;;;;;;;19.77;6.17;;;;;;;;;;4974163;28;20490;-76
2021/11/05 05:00:58;;;;;;;9.03;5.73;;;;;;;;;;4980396;28;20420;-76
2021/11/05 05:03:32;;;;;;;10.87;5.90;;;;;;;;;;4979398;28;20429;-76
2021/11/05 05:05:58;;;;;;;13.20;6.47;;;;;;;;;;4972900;28;20404;-76
2021/11/05 05:08:26;;;;;;;15.93;6.30;;;;;;;;;;4984685;28;21055;-76
2021/11/05 05:10:52;;;;;;;9.47;5.57;;;;;;;;;;4972750;28;20489;-76
2021/11/05 05:13:18;;;;;;;10.00;6.03;;;;;;;;;;4972919;28;20847;-76
2021/11/05 05:15:50;;;;;;;14.17;5.50;;;;;;;;;;4972776;28;20546;-76
2021/11/05 05:18:16;;;;;;;12.63;6.37;;;;;;;;;;4987989;28;20428;-76
2021/11/05 05:20:43;;;;;;;9.23;5.93;;;7.80;1.00;;;;;;4972826;28;20421;-76
2021/11/05 05:23:20;;;;;;;14.90;6.30;;;;;;;;;;4981532;28;20425;-76
2021/11/05 05:25:50;;;;;;;12.87;5.87;;;;;;;;;;4980914;28;20436;-76
2021/11/05 05:28:20;;;;;;;10.40;5.80;;;;;;;;;;4972993;28;20509;-77
2021/11/05 05:30:56;;;;;;;12.93;5.93;;;;;;;;;;4972954;28;20425;-76
2021/11/05 05:33:32;;;;;;;11.10;6.60;;;;;;;;;;4981224;28;20731;-76
2021/11/05 05:36:06;;;;;;;11.90;5.73;;;7.80;1.00;;;;;;4978751;28;20469;-76
2021/11/05 05:38:32;;;;;;;11.73;6.50;;;;;;;;;;4971920;28;20471;-77
2021/11/05 05:41:14;;;;;;;15.90;6.30;;;;;;;;;;4972444;28;20998;-76
2021/11/05 05:43:50;;;;;;;9.50;5.30;;;;;;;;;;4984428;28;20824;-77
2021/11/05 05:46:26;;;;;;;13.60;6.07;;;;;;;;;;4984741;28;20958;-77
2021/11/05 05:49:02;;;;;;;18.70;6.30;;;;;;;;;;4983128;28;20919;-77
2021/11/05 05:51:34;;;;;;;13.23;6.27;;;;;;;;;;4985294;28;20954;-77
2021/11/05 05:54:02;;;;;;;15.57;6.20;;;;;;;;;;4984651;28;20436;-77
2021/11/05 05:56:32;;;;;;;26.40;7.70;;;;;;;;;;4995317;28;20473;-77
2021/11/05 05:58:58;;;;;;;14.37;6.87;;;;;;;;;;4981011;28;20429;-77
2021/11/05 06:01:26;;;;;;;11.20;6.20;;;;;;;;;;4977239;28;20428;-77
2021/11/05 06:03:59;;;;;;;29.43;6.47;;;;;;;;;;4995267;28;20389;-76
2021/11/05 06:06:27;;;;;;;13.17;6.07;;;7.80;1.00;;;;;;4983364;28;20560;-76
2021/11/05 06:09:08;;;;;;;16.53;6.40;;;;;;;;;;4983498;28;20437;-78
2021/11/05 06:11:38;;;;;;;13.43;6.30;;;;;;;;;;4988836;28;20934;-77
2021/11/05 06:14:04;;;;;;;8.13;5.37;;;;;;;;;;4976486;28;20767;-77
2021/11/05 06:16:30;;;;;;;23.03;7.47;;;;;;;;;;4981105;28;20537;-77
2021/11/05 06:18:57;;;;;;;20.00;6.50;;;;;;;;;;4975804;28;20897;-78
2021/11/05 06:21:26;;;;;;;20.00;6.80;;;;;;;;;;4976312;28;20417;-77
2021/11/05 06:24:02;;;;;;;15.17;6.50;;;;;;;;;;4987152;28;20753;-78
2021/11/05 06:26:44;;;;;;;13.80;5.77;;;7.80;1.00;;;;;;4984254;28;20421;-78
2021/11/05 06:29:14;;;;;;;14.10;6.40;;;;;;;;;;4977933;28;20512;-77
2021/11/05 06:31:50;;;;;;;11.43;5.60;;;;;;;;;;4975006;28;20813;-76
2021/11/05 06:34:20;;;;;;;12.03;5.23;;;;;;;;;;4974598;28;20930;-75
2021/11/05 06:36:50;;;;;;;11.70;5.73;;;;;;;;;;4975574;28;20524;-76
2021/11/05 06:39:26;;;;;;;12.40;6.63;;;;;;;;;;4990061;28;20883;-77
2021/11/05 06:41:52;;;;;;;14.63;6.53;;;;;;;;;;4987618;28;20428;-76
2021/11/05 06:44:18;;;;;;;10.77;5.87;;;;;;;;;;4997063;28;20491;-77
2021/11/05 06:46:44;;;;;;;24.57;6.67;;;;;;;;;;4977575;28;20432;-77
2021/11/05 06:49:10;;;;;;;12.40;6.10;;;;;;;;;;4987123;28;20436;-77
2021/11/05 06:51:38;;;;;;;10.77;5.93;;;;;;;;;;4992529;28;20923;-77
2021/11/05 06:54:04;;;;;;;12.50;6.47;;;;;;;;;;4979538;28;20762;-77
2021/11/05 06:56:32;;;;;;;14.83;7.17;;;;;;;;;;4980852;28;20788;-78
2021/11/05 06:58:58;;;;;;;29.87;7.03;;;;;;;;;;4979930;28;20453;-76
2021/11/05 07:01:24;;;;;;;10.57;6.83;;;;;;;;;;4981572;28;20441;-76
2021/11/05 07:03:56;;;;;;;128.40;14.70;;;;;;;;;;4977285;28;20460;-75
2021/11/05 07:06:23;;;;;;;9.83;5.73;;;;;;;;;;4986395;28;20594;-76
2021/11/05 07:08:50;;;;;;;21.17;6.37;;;;;;;;;;4985951;28;20941;-76
2021/11/05 07:11:16;;;;;;;14.67;6.93;;;;;;;;;;4984072;28;20696;-76
2021/11/05 07:13:42;;;;;;;10.30;5.90;;;;;;;;;;4982971;28;20456;-76
2021/11/05 07:16:09;;;;;;;12.80;6.87;;;;;;;;;;4980254;28;21006;-76
2021/11/05 07:18:49;;;;;;;18.40;7.40;;;8.50;1.00;;;;;;4974349;28;20551;-75
2021/11/05 07:21:15;;;;;;;20.17;6.50;;;8.50;1.00;;;;;;4983490;28;20409;-76
2021/11/05 07:24:04;;;;;;;11.53;6.60;;;8.50;1.00;;;;;;4981909;28;20414;-75
2021/11/05 07:26:36;;;;;;;12.60;6.50;;;8.60;1.00;;;;;;4975677;28;20810;-75
2021/11/05 07:29:06;;;;;;;14.50;7.33;;;8.70;1.00;;;;;;4981154;28;20466;-76
2021/11/05 07:31:43;;;;;;;14.90;7.10;;;8.80;1.00;;;;;;4980564;28;20471;-75
2021/11/05 07:34:20;;;;;;;17.80;8.00;;;;;;;;;;4972643;28;20421;-77
2021/11/05 07:36:50;;;;;;;15.00;7.23;;;;;;;;;;4977642;28;20512;-76
2021/11/05 07:39:16;;;;;;;15.33;7.47;;;;;;;;;;4985805;28;20445;-76
2021/11/05 07:41:56;;;;;;;26.67;7.67;;;;;;;;;;4983746;28;20425;-76
2021/11/05 07:44:38;;;;;;;14.57;8.27;;;;;;;;;;4980526;28;20897;-77
2021/11/05 07:47:05;;;;;;;24.93;9.10;;;9.10;1.00;;;;;;4981239;28;20425;-77
2021/11/05 07:49:31;;;;;;;12.63;7.50;;;9.10;1.00;;;;;;4977540;28;20438;-77
2021/11/05 07:52:17;;;;;;;14.77;7.43;;;;;;;;;;4974713;28;20516;-77
2021/11/05 07:54:44;;;;;;;17.53;7.53;;;;;;;;;;4989839;28;20206;-77
2021/11/05 07:57:09;;;;;;;15.00;7.23;;;9.20;1.00;;;;;;4973647;28;20426;-77
2021/11/05 07:59:37;;;;;;;18.40;8.03;;;9.30;1.00;;;;;;4979538;28;20476;-76
2021/11/05 08:02:08;;;;;;;13.70;7.50;;;9.30;1.00;;;;;;4981508;28;20205;-77
2021/11/05 08:04:34;;;;;;;14.93;7.70;;;9.50;1.00;;;;;;4978201;28;20478;-77
2021/11/05 08:07:00;;;;;;;15.03;7.47;;;9.40;1.00;;;;;;4972911;28;20434;-76
2021/11/05 08:09:26;;;;;;;18.80;7.83;;;;;;;;;;4986231;28;20513;-76
2021/11/05 08:11:55;;;;;;;15.40;8.50;;;9.60;1.00;;;;;;4971825;28;20421;-76
2021/11/05 08:14:21;;;;;;;18.03;8.80;;;;;;;;;;4986165;28;20904;-76
2021/11/05 08:16:56;;;;;;;15.30;8.70;;;9.60;1.00;;;;;;4973572;28;20471;-76
2021/11/05 08:19:25;;;;;;;15.10;7.60;;;9.60;1.00;;;;;;4976349;28;20437;-79
2021/11/05 08:21:51;;;;;;;17.10;8.50;;;;;;;;;;4987155;28;20425;-75
2021/11/05 08:24:17;;;;;;;16.07;8.13;;;9.80;1.00;;;;;;4975708;28;20485;-76
2021/11/05 08:26:49;;;;;;;14.50;7.40;;;9.90;1.00;;;;;;4975798;28;20476;-77
2021/11/05 08:29:16;;;;;;;14.60;7.70;;;10.00;1.00;;;;;;4993376;28;20166;-76
2021/11/05 08:31:42;;;;;;;30.50;10.70;;;;;;;;;;4978017;28;20901;-76
2021/11/05 08:34:08;;;;;;;36.80;8.70;;;;;;;;;;4975780;28;20822;-76
2021/11/05 08:36:35;;;;;;;63.80;20.87;;;;;;;;;;4982125;28;20462;-77
2021/11/05 08:41:43;;;;;;;54.07;10.20;;;;;;;;;;5088432;28;20292;-74
2021/11/05 08:44:10;;;;;;;10.70;7.23;;;;;;;;;;5064106;28;20422;-76
2021/11/05 08:46:38;;;;;;;15.67;7.57;;;;;;;;;;5063884;28;20811;-74
2021/11/05 08:49:09;;;;;;;19.67;8.83;;;;;;;;;;5058785;28;20861;-74
2021/11/05 08:51:36;;;;;;;21.37;7.47;;;;;;;;;;5066987;28;20870;-74
2021/11/05 08:54:03;;;;;;;25.10;9.17;;;;;;;;;;5054608;28;20855;-75
2021/11/05 08:56:32;;;;;;;42.97;9.37;;;;;;;;;;5064702;28;20449;-78
2021/11/05 08:58:58;;;;;;;19.40;8.63;;;;;;;;;;5058628;28;20414;-76
2021/11/05 09:01:25;;;;;;;19.20;7.57;;;;;;;;;;5070376;28;20429;-76
2021/11/05 09:03:52;;;;;;;15.20;7.80;;;;;;;;;;5071081;28;20414;-76
2021/11/05 09:06:18;;;;;;;33.17;9.20;;;;;;;;;;5059110;28;20993;-76
2021/11/05 09:08:47;;;;;;;16.73;8.10;;;;;;;;;;5051083;28;20418;-77
2021/11/05 09:11:13;;;;;;;15.97;7.93;;;;;;;;;;5070208;28;20940;-76
2021/11/05 09:13:40;;;;;;;16.40;7.83;;;;;;;;;;5076803;28;20788;-75
2021/11/05 09:16:06;;;;;;;18.67;7.80;;;;;;;;;;5074714;28;20421;-76
2021/11/05 09:18:38;;;;;;;13.93;7.47;;;;;;;;;;5068292;28;20960;-77
2021/11/05 09:21:04;;;;;;;18.60;8.40;;;;;;;;;;5061643;28;20426;-75
2021/11/05 09:23:31;;;;;;;21.67;7.70;;;11.50;1.00;;;;;;5063005;28;20430;-76
2021/11/05 09:25:57;;;;;;;20.13;9.53;;;;;;;;;;5052543;28;20437;-76
2021/11/05 09:28:24;;;;;;;18.13;7.20;;;;;;;;;;5071620;28;20433;-76
2021/11/05 09:30:50;;;;;;;31.27;9.43;;;;;;;;;;5066670;28;20447;-76
2021/11/05 09:33:19;;;;;;;24.90;9.13;;;;;;;;;;5056347;28;20734;-76
2021/11/05 09:35:45;;;;;;;24.63;8.37;;;;;;;;;;5063447;28;20413;-76
2021/11/05 09:38:12;;;;;;;20.60;8.33;;;;;;;;;;5069165;28;20430;-76
2021/11/05 09:40:38;;;;;;;18.13;7.90;;;;;;;;;;5065754;28;20790;-76
2021/11/05 09:43:04;;;;;;;19.63;8.20;;;;;;;;;;5052475;28;20420;-75
2021/11/05 09:45:31;;;;;;;18.53;8.00;;;;;;;;;;5059782;28;20438;-76
2021/11/05 09:47:58;;;;;;;17.53;7.57;;;;;;;;;;5058658;28;20487;-76
2021/11/05 09:50:24;;;;;;;17.10;7.80;;;;;;;;;;5067347;28;20460;-76
2021/11/05 09:52:56;;;;;;;20.30;8.70;;;;;;;;;;5047901;28;20737;-76
2021/11/05 09:55:22;;;;;;;16.67;7.60;;;;;;;;;;5055552;28;20965;-76
2021/11/05 09:57:48;;;;;;;23.47;8.10;;;;;;;;;;5041974;28;20426;-77
2021/11/05 10:00:18;;;;;;;17.87;7.77;;;12.20;1.00;;;;;;5054858;28;20422;-77
2021/11/05 10:02:45;;;;;;;18.60;8.60;;;12.20;1.00;;;;;;5050356;28;20439;-77
2021/11/05 10:05:12;;;;;;;55.57;10.30;;;;;;;;;;5045482;28;20422;-78
2021/11/05 10:07:47;;;;;;;22.43;8.43;;;;;;;;;;5051392;28;20404;-77
2021/11/05 10:10:13;;;;;;;20.03;8.33;;;;;;;;;;5054880;28;20456;-77
2021/11/05 10:12:51;;;;;;;19.43;7.50;;;;;;;;;;5054883;28;20411;-77
2021/11/05 10:15:17;;;;;;;19.23;7.40;;;;;;;;;;5045297;28;20997;-76
2021/11/05 10:17:44;;;;;;;19.50;7.63;;;;;;;;;;5054573;28;20497;-76
2021/11/05 10:20:10;;;;;;;17.13;8.17;;;12.20;1.00;;;;;;5039997;28;20797;-76
2021/11/05 10:22:52;;;;;;;22.00;8.37;;;12.30;1.00;;;;;;5041760;28;20434;-76
2021/11/05 10:25:23;;;;;;;19.30;7.83;;;12.40;1.00;;;;;;5041188;28;20697;-76
2021/11/05 10:28:00;;;;;;;20.63;8.00;;;;;;;;;;5064015;28;20417;-76
2021/11/05 10:30:26;;;;;;;22.40;7.50;;;;;;;;;;5036616;28;20459;-77
2021/11/05 10:32:59;;;;;;;19.63;8.10;;;;;;;;;;5045582;28;20412;-77
2021/11/05 10:35:25;;;;;;;20.47;8.60;;;12.50;1.00;;;;;;5041786;28;20507;-77
2021/11/05 10:38:03;;;;;;;19.30;7.63;;;12.60;1.00;;;;;;5050993;28;20438;-77
2021/11/05 10:40:35;;;;;;;20.03;7.93;;;12.60;1.00;;;;;;5044499;28;20967;-77
2021/11/05 10:43:02;;;;;;;25.17;8.00;;;;;;;;;;5053013;28;20507;-77
2021/11/05 10:45:28;;;;;;;20.33;7.70;;;;;;;;;;5043047;28;20503;-77
2021/11/05 10:47:54;;;;;;;21.47;7.03;;;;;;;;;;5046831;28;20857;-78
2021/11/05 10:50:30;;;;;;;18.20;7.60;;;13.10;1.00;;;;;;5035522;28;20466;-78
2021/11/05 10:53:06;;;;;;;17.73;7.03;;;;;;;;;;5040047;28;20874;-77
2021/11/05 10:55:44;;;;;;;16.13;7.20;;;;;;;;;;5057933;28;20419;-77
2021/11/05 10:58:19;;;;;;;22.20;7.77;;;;;;;;;;5040867;28;20410;-77
2021/11/05 11:00:46;;;;;;;14.87;6.30;;;;;;;;;;5039015;28;20506;-76
2021/11/05 11:03:13;;;;;;;20.30;7.40;;;;;;;;;;5039629;28;20806;-76
2021/11/05 11:05:46;;;;;;;24.70;7.20;;;;;;;;;;5052435;28;20444;-76
2021/11/05 11:08:25;;;;;;;18.73;6.60;;;13.30;1.00;;;;;;5034702;28;20405;-76
2021/11/05 11:10:53;;;;;;;15.17;7.07;;;13.10;1.00;;;;;;5050298;28;20441;-76
2021/11/05 11:13:36;;;;;;;12.20;5.70;;;;;;;;;;5052330;28;20431;-77
2021/11/05 11:16:03;;;;;;;11.83;5.23;;;;;;;;;;5053023;28;20943;-77
2021/11/05 11:18:32;;;;;;;15.50;5.87;;;;;;;;;;5053645;28;20417;-77
2021/11/05 11:20:58;;;;;;;20.60;7.20;;;;;;;;;;5053368;28;20449;-78
2021/11/05 11:23:24;;;;;;;14.30;6.07;;;;;;;;;;5040161;28;20494;-78
2021/11/05 11:25:50;;;;;;;20.73;7.20;;;;;;;;;;5047617;28;20494;-78
2021/11/05 11:28:17;;;;;;;15.67;6.83;;;12.80;1.00;;;;;;5053402;28;20475;-77
2021/11/05 11:30:43;;;;;;;14.53;5.83;;;;;;;;;;5045277;28;20427;-75
2021/11/05 11:33:09;;;;;;;16.10;6.53;;;;;;;;;;5044666;28;20418;-75
2021/11/05 11:35:35;;;;;;;20.73;7.07;;;;;;;;;;5053253;28;20479;-76
2021/11/05 11:38:02;;;;;;;15.80;6.03;;;;;;;;;;5052937;28;20409;-76
2021/11/05 11:40:28;;;;;;;30.67;7.80;;;;;;;;;;5047577;28;20842;-76
2021/11/05 11:42:54;;;;;;;24.03;6.70;;;;;;;;;;5048001;28;20444;-76
2021/11/05 11:45:21;;;;;;;14.73;6.50;;;;;;;;;;5053591;28;20414;-76
2021/11/05 11:47:48;;;;;;;17.63;6.60;;;;;;;;;;5047486;28;20436;-77
2021/11/05 11:50:22;;;;;;;14.13;6.07;;;;;;;;;;5039868;28;20437;-77
2021/11/05 11:53:06;;;;;;;21.77;6.37;;;;;;;;;;5037883;28;20447;-77
2021/11/05 11:55:33;;;;;;;17.03;6.13;;;;;;;;;;5056103;28;20433;-77
2021/11/05 11:58:08;;;;;;;18.13;7.13;;;;;;;;;;5052652;28;20414;-77
2021/11/05 12:00:34;;;;;;;15.40;6.30;;;;;;;;;;5052736;28;20469;-76
2021/11/05 12:03:09;;;;;;;15.33;6.10;;;12.80;1.00;;;;;;5050906;28;20488;-77
2021/11/05 12:05:46;;;;;;;19.03;6.47;;;12.80;1.00;;;;;;5047225;28;20907;-77
2021/11/05 12:08:15;;;;;;;22.80;7.00;;;;;;;;;;5051378;28;20411;-77
2021/11/05 12:10:44;;;;;;;14.73;6.80;;;13.00;1.00;;;;;;5035960;28;20402;-77
2021/11/05 12:13:31;;;;;;;21.67;7.00;;;;;;;;;;5042888;28;20785;-77
2021/11/05 12:16:21;;;;;;;19.00;7.17;;;;;;;;;;5060697;28;20805;-76
2021/11/05 12:18:59;;;;;;;15.77;7.00;;;;;;;;;;5048794;28;20407;-76
2021/11/05 12:21:25;;;;;;;19.23;7.13;;;;;;;;;;5036025;28;20531;-76
2021/11/05 12:24:26;;;;;;;39.87;7.83;;;12.40;1.00;;;;;;5043562;28;20912;-76
2021/11/05 12:26:55;;;;;;;16.90;7.00;;;;;;;;;;5052569;28;20927;-77
2021/11/05 12:29:37;;;;;;;17.40;6.80;;;;;;;;;;5037871;28;20434;-76
2021/11/05 12:32:15;;;;;;;26.23;7.80;;;;;;;;;;5049727;28;20426;-76
2021/11/05 12:34:48;;;;;;;40.00;9.10;;;12.80;1.00;;;;;;5041026;28;20700;-76
2021/11/05 12:37:27;;;;;;;15.47;7.03;;;12.90;1.00;;;;;;5033834;28;20935;-76
2021/11/05 12:39:53;;;;;;;15.83;6.50;;;;;;;;;;5037627;28;20481;-75
2021/11/05 12:42:20;;;;;;;11.50;4.90;;;;;;;;;;5039550;28;20793;-76
2021/11/05 12:44:53;;;;;;;11.73;4.63;;;;;;;;;;5045253;28;20423;-76
2021/11/05 12:47:44;;;;;;;12.37;4.83;;;13.20;1.00;;;;;;5034014;28;20402;-77
2021/11/05 12:50:11;;;;;;;11.07;4.70;;;;;;;;;;5039865;28;20909;-77
2021/11/05 12:52:37;;;;;;;15.20;4.60;;;;;;;;;;5046751;28;20422;-77
2021/11/05 12:55:04;;;;;;;9.93;4.10;;;13.30;1.00;;;;;;5058514;28;20458;-77
2021/11/05 12:57:32;;;;;;;6.40;3.90;;;;;;;;;;5057350;28;20521;-77
2021/11/05 12:59:59;;;;;;;16.00;4.33;;;;;;;;;;5052239;28;20527;-77
2021/11/05 13:02:25;;;;;;;12.80;4.07;;;;;;;;;;5047810;28;20504;-77
2021/11/05 13:04:52;;;;;;;9.20;4.00;;;;;;;;;;5040656;28;20418;-76
2021/11/05 13:07:19;;;;;;;10.93;3.40;;;;;;;;;;5039158;28;21045;-76
2021/11/05 13:09:50;;;;;;;23.50;4.20;;;;;;;;;;5048597;28;20431;-80
2021/11/05 13:12:20;;;;;;;10.33;2.67;;;13.00;1.00;;;;;;5049612;28;20529;-76
2021/11/05 13:14:56;;;;;;;10.73;3.57;;;13.00;1.00;;;;;;5052967;28;20414;-76
2021/11/05 13:17:31;;;;;;;5.97;2.57;;;;;;;;;;5047947;28;20434;-77
2021/11/05 13:20:09;;;;;;;11.37;3.40;;;13.10;1.00;;;;;;5069135;28;20455;-77
2021/11/05 13:22:37;;;;;;;7.37;2.57;;;13.20;1.00;;;;;;5049499;28;20421;-76
2021/11/05 13:25:23;;;;;;;13.93;3.87;;;;;;;;;;5044568;28;20399;-77
2021/11/05 13:28:03;;;;;;;6.10;2.83;;;13.30;1.00;;;;;;5057096;28;20479;-77
2021/11/05 13:30:34;;;;;;;7.00;3.27;;;;;;;;;;5056013;28;20426;-76
2021/11/05 13:33:00;;;;;;;10.10;3.60;;;13.50;1.00;;;;;;5052942;28;20895;-76
2021/11/05 13:35:27;;;;;;;10.00;3.03;;;;;;;;;;5042291;28;20433;-77
2021/11/05 13:38:04;;;;;;;12.40;2.67;;;13.50;1.00;;;;;;5047427;28;20400;-76
2021/11/05 13:40:30;;;;;;;5.23;2.23;;;13.60;1.00;;;;;;5043620;28;20580;-76
2021/11/05 13:43:19;;;;;;;14.80;3.77;;;13.40;1.00;;;;;;5054411;28;20426;-76
2021/11/05 13:45:56;;;;;;;6.27;2.50;;;13.40;1.00;;;;;;5042603;28;20960;-76
2021/11/05 13:48:28;;;;;;;6.17;2.87;;;13.30;1.00;;;;;;5045776;28;20437;-74
2021/11/05 13:51:04;;;;;;;9.80;2.63;;;;;;;;;;5040373;28;20435;-76
2021/11/05 13:53:49;;;;;;;4.87;2.70;;;13.30;1.00;;;;;;5052555;28;20879;-82
2021/11/05 13:56:21;;;;;;;5.13;2.10;;;13.20;1.00;;;;;;5059507;28;20936;-79
2021/11/05 13:58:55;;;;;;;4.53;2.43;;;13.30;1.00;;;;;;5049096;28;20770;-77
2021/11/05 14:01:25;;;;;;;9.53;3.57;;;13.20;1.00;;;;;;5051315;28;20539;-76
2021/11/05 14:03:59;;;;;;;7.10;2.60;;;13.10;1.00;;;;;;5058745;28;20433;-78
2021/11/05 14:06:26;;;;;;;9.93;2.90;;;13.00;1.00;;;;;;5053636;28;20418;-75
2021/11/05 14:08:53;;;;;;;8.47;2.43;;;;;;;;;;5045793;28;20479;-74
2021/11/05 14:11:34;;;;;;;17.00;3.60;;;12.90;1.00;;;;;;5032757;28;20510;-75
2021/11/05 14:14:01;;;;;;;5.30;2.57;;;12.80;1.00;;;;;;5052654;28;20448;-74
2021/11/05 14:16:29;;;;;;;4.93;2.27;;;;;;;;;;5055599;28;20475;-75
2021/11/05 14:19:08;;;;;;;6.93;2.40;;;;;;;;;;5047223;28;20449;-75
2021/11/05 14:21:35;;;;;;;17.00;4.40;;;;;;;;;;5058995;28;20472;-75
2021/11/05 14:24:20;;;;;;;6.70;2.87;;;;;;;;;;5055160;28;20414;-76
2021/11/05 14:27:03;;;;;;;13.33;3.20;;;12.50;1.00;;;;;;5045726;28;20781;-77
2021/11/05 14:29:36;;;;;;;4.43;2.23;;;12.40;1.00;;;;;;5052552;28;20430;-77
2021/11/05 14:32:08;;;;;;;16.57;3.33;;;;;;;;;;5069679;28;20507;-75
2021/11/05 14:34:49;;;;;;;33.20;4.60;;;12.40;1.00;;;;;;5054465;28;20978;-75